Time;durP1;ratioP1;P1;durP2;ratioP2;P2;SDS_P1;SDS_P2;PMS_P1;PMS_P2;Temp;Humidity;BMP_temperature;BMP_pressure;BME280_temperature;BME280_humidity;BME280_pressure;Samples;Min_cycle;Max_cycle;Signal;HPM_P1;HPM_P2
2023/04/05 00:01:24;;;;;;;17.60;13.10;;;;;;;15.84;72.34;99534.33;108591;1281;21997;-70
2023/04/05 00:03:51;;;;;;;17.50;13.10;;;;;;;15.85;72.37;99538.39;108135;1281;22000;-68
2023/04/05 00:06:17;;;;;;;18.90;13.90;;;;;;;15.83;72.40;99541.63;108581;1281;21980;-68
2023/04/05 00:08:48;;;;;;;21.10;14.70;;;;;;;15.80;72.48;99541.06;107819;1281;1002596;-65
2023/04/05 00:11:17;;;;;;;19.40;13.80;;;;;;;15.78;72.57;99536.06;108567;1281;21985;-70
2023/04/05 00:13:43;;;;;;;17.90;12.70;;;;;;;15.79;72.68;99534.06;108648;1281;21990;-69
2023/04/05 00:16:12;;;;;;;19.50;13.00;;;;;;;15.82;72.80;99531.80;108536;1277;22039;-68
2023/04/05 00:18:38;;;;;;;18.50;14.60;;;;;;;15.85;72.88;99527.58;108590;1281;21993;-68
2023/04/05 00:21:04;;;;;;;18.60;13.70;;;;;;;15.86;72.70;99522.25;108490;1281;21990;-66
2023/04/05 00:23:37;;;;;;;18.00;13.40;;;;;;;15.84;72.76;99517.70;108327;1280;22030;-68
2023/04/05 00:26:03;;;;;;;16.10;12.90;;;;;;;15.81;72.75;99514.34;108533;1281;21983;-68
2023/04/05 00:28:28;;;;;;;17.20;13.40;;;;;;;15.80;72.71;99512.06;108444;1281;22243;-68
2023/04/05 00:30:54;;;;;;;15.80;12.70;;;;;;;15.83;72.93;99509.96;108216;1281;21983;-69
2023/04/05 00:33:20;;;;;;;18.10;13.50;;;;;;;15.86;72.94;99507.73;108537;1277;22000;-69
2023/04/05 00:35:46;;;;;;;17.10;14.00;;;;;;;15.86;72.89;99509.34;108526;1281;21990;-68
2023/04/05 00:38:13;;;;;;;20.00;15.30;;;;;;;15.81;72.63;99513.61;108585;1281;21985;-69
2023/04/05 00:40:39;;;;;;;20.70;14.60;;;;;;;15.77;72.76;99515.05;108629;1281;23616;-66
2023/04/05 00:43:04;;;;;;;19.40;14.20;;;;;;;15.74;72.50;99518.00;108613;1281;21989;-68
2023/04/05 00:45:30;;;;;;;18.60;14.10;;;;;;;15.72;72.81;99517.92;108500;1281;21983;-69
2023/04/05 00:47:56;;;;;;;16.70;13.10;;;;;;;15.70;72.85;99510.41;108575;1281;22061;-67
2023/04/05 00:50:23;;;;;;;20.60;15.40;;;;;;;15.68;72.69;99496.35;108438;1281;21998;-67
2023/04/05 00:52:54;;;;;;;18.10;14.00;;;;;;;15.68;72.80;99493.89;108525;1281;23637;-66
2023/04/05 00:55:21;;;;;;;17.30;12.50;;;;;;;15.65;72.83;99490.31;107422;1281;1002567;-67
2023/04/05 00:57:48;;;;;;;18.20;13.80;;;;;;;15.62;72.87;99489.75;108291;1281;22000;-70
2023/04/05 01:00:15;;;;;;;21.60;15.00;;;;;;;15.60;73.52;99488.08;108157;1281;22005;-69
2023/04/05 01:02:53;;;;;;;21.50;15.70;;;;;;;15.55;73.40;99486.02;108455;1281;22000;-64
2023/04/05 01:05:34;;;;;;;18.40;13.50;;;;;;;15.53;73.20;99490.34;108467;1281;21977;-66
2023/04/05 01:08:05;;;;;;;19.60;14.20;;;;;;;15.51;73.21;99495.73;108489;1281;22006;-66
2023/04/05 01:10:34;;;;;;;;;;;;;;;15.50;73.24;99499.15;108484;1281;21964;-69
2023/04/05 01:13:03;;;;;;;20.60;14.10;;;;;;;15.50;73.37;99500.73;108498;1281;21980;-68
2023/04/05 01:15:29;;;;;;;18.90;13.90;;;;;;;15.49;73.53;99498.65;108234;1281;21998;-68
2023/04/05 01:17:56;;;;;;;20.70;14.90;;;;;;;15.49;73.45;99495.47;108484;1281;21983;-66
2023/04/05 01:20:24;;;;;;;18.20;14.10;;;;;;;15.46;73.54;99491.72;108497;1281;21998;-65
2023/04/05 01:22:53;;;;;;;18.90;13.50;;;;;;;15.45;73.65;99495.30;108498;1281;21995;-68
2023/04/05 01:26:04;;;;;;;17.20;13.20;;;;;;;15.46;73.45;99495.96;108461;1281;22952;-66
2023/04/05 01:28:32;;;;;;;19.40;13.70;;;;;;;15.44;73.50;99500.83;107886;1289;22774;-69
2023/04/05 01:31:21;;;;;;;17.40;13.50;;;;;;;15.43;73.42;99504.76;108379;1281;22035;-66
2023/04/05 01:33:55;;;;;;;19.00;14.60;;;;;;;15.44;73.45;99502.61;108447;1281;23675;-66
2023/04/05 01:36:30;;;;;;;21.80;15.80;;;;;;;15.45;73.67;99501.31;107783;1281;1002546;-68
2023/04/05 01:38:55;;;;;;;20.80;15.80;;;;;;;15.44;73.61;99500.11;108464;1281;22003;-66
2023/04/05 01:41:21;;;;;;;19.40;14.90;;;;;;;15.45;73.73;99490.70;108215;1281;22052;-67
2023/04/05 01:43:47;;;;;;;18.40;14.90;;;;;;;15.45;73.60;99485.05;108230;1281;23113;-65
2023/04/05 01:46:13;;;;;;;19.30;14.80;;;;;;;15.44;73.83;99478.41;108463;1281;21962;-68
2023/04/05 01:48:38;;;;;;;19.20;13.90;;;;;;;15.41;73.82;99472.52;108469;1281;21982;-68
2023/04/05 01:51:04;;;;;;;19.90;14.80;;;;;;;15.40;73.74;99470.42;108484;1281;21997;-69
2023/04/05 01:53:31;;;;;;;20.20;14.80;;;;;;;15.40;74.03;99468.85;108531;1281;22040;-68
2023/04/05 01:56:00;;;;;;;19.50;14.60;;;;;;;15.39;73.93;99465.88;108481;1281;21974;-66
2023/04/05 01:58:26;;;;;;;20.00;13.30;;;;;;;15.38;74.23;99461.73;108476;1281;21983;-65
2023/04/05 02:00:54;;;;;;;16.70;13.60;;;;;;;15.36;74.16;99460.23;108542;1281;21950;-69
2023/04/05 02:03:23;;;;;;;18.60;13.90;;;;;;;15.36;74.10;99460.39;108437;1270;21985;-66
2023/04/05 02:05:50;;;;;;;22.70;15.60;;;;;;;15.36;74.24;99458.61;107768;1281;1003148;-68
2023/04/05 02:08:19;;;;;;;18.70;14.30;;;;;;;15.36;74.24;99459.70;108242;1281;21985;-65
2023/04/05 02:10:46;;;;;;;19.60;14.50;;;;;;;15.37;74.16;99463.34;108480;1281;21979;-68
2023/04/05 02:13:12;;;;;;;20.30;14.40;;;;;;;15.38;74.24;99468.24;108270;1281;21988;-66
2023/04/05 02:15:39;;;;;;;20.40;15.60;;;;;;;15.39;74.36;99470.34;108472;1281;21969;-66
2023/04/05 02:18:06;;;;;;;22.90;15.20;;;;;;;15.40;74.50;99471.68;108515;1281;21986;-68
2023/04/05 02:20:34;;;;;;;19.60;15.30;;;;;;;15.39;74.50;99469.09;108243;1281;21995;-69
2023/04/05 02:23:00;;;;;;;19.50;14.20;;;;;;;15.36;74.45;99461.63;108475;1281;21984;-68
2023/04/05 02:25:26;;;;;;;17.70;13.50;;;;;;;15.35;74.28;99458.84;108422;1281;21988;-68
2023/04/05 02:27:52;;;;;;;18.50;13.80;;;;;;;15.35;74.56;99456.36;108454;1281;23609;-66
2023/04/05 02:30:18;;;;;;;22.40;14.50;;;;;;;15.35;74.66;99452.33;108245;1281;21983;-68
2023/04/05 02:32:45;;;;;;;17.20;12.80;;;;;;;15.33;74.62;99452.23;108319;1281;23625;-65
2023/04/05 02:35:17;;;;;;;18.00;14.00;;;;;;;15.33;74.56;99453.43;108463;1281;21981;-68
2023/04/05 02:37:42;;;;;;;17.80;13.70;;;;;;;15.34;74.87;99453.40;108463;1281;22144;-65
2023/04/05 02:40:12;;;;;;;17.50;13.40;;;;;;;15.34;74.98;99457.13;108395;1281;21980;-68
2023/04/05 02:42:38;;;;;;;18.70;12.90;;;;;;;15.34;74.67;99462.77;108457;1281;22190;-68
2023/04/05 02:45:05;;;;;;;17.90;13.70;;;;;;;15.36;74.67;99472.05;108477;1278;21986;-68
2023/04/05 02:47:34;;;;;;;17.30;13.30;;;;;;;15.36;74.75;99472.92;108630;1280;21930;-66
2023/04/05 02:50:00;;;;;;;20.70;13.50;;;;;;;15.36;74.76;99473.63;108413;1278;21983;-68
2023/04/05 02:52:25;;;;;;;18.50;13.00;;;;;;;15.37;75.03;99473.05;108536;1281;22117;-67
2023/04/05 02:54:51;;;;;;;19.80;14.50;;;;;;;15.34;75.01;99472.30;108442;1277;21980;-68
2023/04/05 02:57:18;;;;;;;19.60;13.30;;;;;;;15.31;74.90;99469.60;108438;1281;21986;-68
2023/04/05 02:59:44;;;;;;;18.10;13.80;;;;;;;15.28;75.41;99466.59;108402;1281;22013;-66
2023/04/05 03:02:10;;;;;;;21.90;14.00;;;;;;;15.26;75.00;99466.48;108414;1281;21988;-66
2023/04/05 03:04:37;;;;;;;14.60;12.20;;;;;;;15.23;75.53;99463.07;108358;1281;22161;-66
2023/04/05 03:07:03;;;;;;;14.80;12.20;;;;;;;15.23;75.07;99459.39;108436;1281;21977;-66
2023/04/05 03:09:33;;;;;;;16.90;13.60;;;;;;;15.24;75.27;99454.41;108305;1281;21989;-65
2023/04/05 03:12:00;;;;;;;19.80;13.10;;;;;;;15.22;75.65;99451.11;108461;1281;22037;-68
2023/04/05 03:14:33;;;;;;;18.60;14.00;;;;;;;15.20;75.59;99445.05;108607;1281;21986;-66
2023/04/05 03:17:00;;;;;;;20.40;13.80;;;;;;;15.17;75.68;99440.73;108514;1281;21980;-67
2023/04/05 03:19:25;;;;;;;16.60;12.50;;;;;;;15.13;76.35;99439.17;108499;1281;21983;-67
2023/04/05 03:21:52;;;;;;;16.20;12.40;;;;;;;15.09;76.27;99437.94;108490;1281;21999;-69
2023/04/05 03:24:18;;;;;;;19.00;13.10;;;;;;;15.08;76.32;99434.42;108456;1281;21980;-67
2023/04/05 03:26:47;;;;;;;19.40;12.50;;;;;;;15.09;75.83;99432.80;108569;1281;21982;-67
2023/04/05 03:29:12;;;;;;;17.20;12.90;;;;;;;15.13;75.80;99434.23;108459;1276;23030;-67
2023/04/05 03:31:38;;;;;;;16.50;11.60;;;;;;;15.15;76.00;99435.55;108418;1277;21980;-69
2023/04/05 03:34:05;;;;;;;15.70;12.20;;;;;;;15.16;75.66;99437.60;108465;1278;21978;-66
2023/04/05 03:36:40;;;;;;;16.40;12.70;;;;;;;15.16;75.75;99436.57;108420;1281;22397;-69
2023/04/05 03:39:12;;;;;;;18.60;12.20;;;;;;;15.16;75.97;99436.36;108398;1281;22674;-67
2023/04/05 03:41:42;;;;;;;17.80;13.10;;;;;;;15.17;75.90;99439.16;108415;1281;23621;-66
2023/04/05 03:44:09;;;;;;;19.90;12.70;;;;;;;15.18;75.99;99440.38;107716;1281;1002112;-67
2023/04/05 03:46:36;;;;;;;28.30;19.20;;;;;;;15.20;75.79;99445.77;108362;1281;22452;-65
2023/04/05 03:49:02;;;;;;;27.30;19.20;;;;;;;15.23;75.59;99449.51;108414;1281;21989;-64
2023/04/05 03:51:28;;;;;;;21.20;15.30;;;;;;;15.26;75.61;99451.64;108350;1281;22015;-64
2023/04/05 03:53:55;;;;;;;15.70;12.40;;;;;;;15.29;75.74;99452.92;108428;1281;21988;-67
2023/04/05 03:56:21;;;;;;;17.50;12.80;;;;;;;15.30;75.68;99451.98;108437;1281;21979;-65
2023/04/05 03:58:51;;;;;;;18.30;11.50;;;;;;;15.32;75.41;99449.08;108324;1281;21998;-65
2023/04/05 04:01:17;;;;;;;14.60;11.00;;;;;;;15.32;75.73;99446.60;108429;1281;22015;-68
2023/04/05 04:03:43;;;;;;;15.50;11.70;;;;;;;15.30;75.87;99439.80;108583;1277;21984;-64
2023/04/05 04:06:09;;;;;;;16.20;12.60;;;;;;;15.26;76.20;99441.73;108496;1280;23641;-68
2023/04/05 04:08:38;;;;;;;15.40;11.70;;;;;;;15.23;76.60;99442.95;108516;1281;21987;-69
2023/04/05 04:11:05;;;;;;;16.10;12.70;;;;;;;15.22;77.09;99442.47;108431;1281;21984;-67
2023/04/05 04:13:35;;;;;;;17.10;12.90;;;;;;;15.18;77.58;99441.06;108388;1281;22040;-65
2023/04/05 04:16:02;;;;;;;17.40;12.50;;;;;;;15.16;77.81;99442.56;108584;1281;21989;-68
2023/04/05 04:18:28;;;;;;;19.20;13.70;;;;;;;15.13;78.42;99447.98;108475;1281;21980;-69
2023/04/05 04:20:55;;;;;;;13.70;11.20;;;;;;;15.15;77.98;99450.39;108635;1281;22077;-66
2023/04/05 04:23:21;;;;;;;16.30;12.50;;;;;;;15.16;78.31;99460.25;108625;1270;23928;-65
2023/04/05 04:25:53;;;;;;;20.80;13.30;;;;;;;15.13;79.22;99465.29;108480;1281;21983;-68
2023/04/05 04:28:20;;;;;;;18.40;13.30;;;;;;;15.09;79.64;99465.12;108651;1281;22050;-69
2023/04/05 04:30:45;;;;;;;16.20;13.10;;;;;;;15.02;80.65;99464.38;108737;1281;21982;-65
2023/04/05 04:33:12;;;;;;;15.60;12.40;;;;;;;15.04;79.87;99464.66;109004;1278;21978;-65
2023/04/05 04:35:39;;;;;;;18.20;13.00;;;;;;;15.03;80.30;99463.11;108530;1281;23621;-68
2023/04/05 04:38:06;;;;;;;17.60;12.90;;;;;;;15.01;80.51;99458.80;109389;1281;21989;-68
2023/04/05 04:40:38;;;;;;;16.40;13.10;;;;;;;15.00;80.93;99458.46;108431;1281;21985;-68
2023/04/05 04:43:16;;;;;;;15.30;12.40;;;;;;;15.02;80.49;99457.16;108522;1281;22008;-67
2023/04/05 04:45:54;;;;;;;17.40;13.10;;;;;;;15.05;80.13;99453.15;108431;1281;22003;-67
2023/04/05 04:48:20;;;;;;;18.00;12.40;;;;;;;15.04;80.36;99454.06;108471;1281;22149;-66
2023/04/05 04:50:48;;;;;;;15.10;12.70;;;;;;;15.07;79.75;99458.68;108479;1277;21952;-66
2023/04/05 04:53:16;;;;;;;17.30;12.80;;;;;;;15.10;80.10;99455.22;108434;1281;21983;-67
2023/04/05 04:55:49;;;;;;;15.40;12.30;;;;;;;15.13;79.69;99451.52;108420;1281;21988;-66
2023/04/05 04:58:17;;;;;;;17.40;13.00;;;;;;;15.17;79.83;99444.80;108494;1281;22445;-69
2023/04/05 05:00:43;;;;;;;15.90;12.20;;;;;;;15.20;79.69;99434.46;108486;1281;21977;-68
2023/04/05 05:03:13;;;;;;;15.50;11.80;;;;;;;15.24;79.25;99422.25;108427;1281;21990;-65
2023/04/05 05:05:52;;;;;;;15.60;12.50;;;;;;;15.26;79.37;99411.52;108442;1281;22015;-65
2023/04/05 05:08:18;;;;;;;15.70;11.90;;;;;;;15.29;79.31;99412.81;108453;1281;21983;-67
2023/04/05 05:10:44;;;;;;;15.80;11.90;;;;;;;15.29;79.12;99414.94;108563;1281;21981;-67
2023/04/05 05:13:10;;;;;;;15.30;12.50;;;;;;;15.28;79.07;99420.25;108498;1281;21978;-67
2023/04/05 05:15:39;;;;;;;15.00;12.50;;;;;;;15.28;79.36;99423.80;108444;1281;21981;-68
2023/04/05 05:18:05;;;;;;;15.50;11.50;;;;;;;15.27;79.67;99425.07;108533;1281;21985;-66
2023/04/05 05:20:31;;;;;;;17.00;13.00;;;;;;;15.26;79.73;99430.59;108574;1281;23704;-68
2023/04/05 05:22:59;;;;;;;17.30;13.30;;;;;;;15.26;79.61;99434.66;108418;1281;22408;-68
2023/04/05 05:25:26;;;;;;;18.80;12.70;;;;;;;15.23;80.12;99445.41;108470;1281;21983;-68
2023/04/05 05:27:51;;;;;;;17.60;13.70;;;;;;;15.21;79.98;99444.62;108510;1280;21993;-68
2023/04/05 05:30:17;;;;;;;15.90;13.60;;;;;;;15.15;80.72;99446.14;108542;1281;21993;-68
2023/04/05 05:32:44;;;;;;;16.90;13.80;;;;;;;15.09;81.26;99446.77;108526;1281;21980;-68
2023/04/05 05:35:10;;;;;;;18.00;13.70;;;;;;;15.07;81.28;99444.37;108536;1274;21980;-67
2023/04/05 05:37:36;;;;;;;19.20;13.50;;;;;;;15.06;81.46;99445.84;108528;1277;22020;-68
2023/04/05 05:40:04;;;;;;;19.40;15.40;;;;;;;15.09;81.13;99443.43;108516;1279;21984;-67
2023/04/05 05:42:33;;;;;;;17.50;12.80;;;;;;;15.09;81.06;99438.83;108488;1281;21987;-67
2023/04/05 05:45:08;;;;;;;18.80;14.10;;;;;;;15.13;80.64;99436.70;107824;1281;1002970;-67
2023/04/05 05:47:35;;;;;;;14.70;13.00;;;;;;;15.18;80.44;99436.13;108599;1281;21988;-68
2023/04/05 05:50:00;;;;;;;16.60;13.40;;;;;;;15.18;80.78;99436.12;108532;1281;21984;-68
2023/04/05 05:52:27;;;;;;;21.10;13.80;;;;;;;15.19;80.79;99432.54;108451;1281;21988;-66
2023/04/05 05:54:53;;;;;;;17.40;13.70;;;;;;;15.23;80.42;99429.54;108487;1281;23647;-68
2023/04/05 05:57:19;;;;;;;20.80;14.90;;;;;;;15.24;80.59;99435.66;108455;1281;21978;-66
2023/04/05 05:59:45;;;;;;;21.20;15.10;;;;;;;15.25;80.63;99436.67;108554;1277;21979;-66
2023/04/05 06:02:11;;;;;;;17.50;13.60;;;;;;;15.23;81.13;99432.51;108327;1280;21990;-65
2023/04/05 06:04:37;;;;;;;16.50;14.30;;;;;;;15.24;81.04;99433.02;108497;1281;22017;-66
2023/04/05 06:07:03;;;;;;;19.90;14.70;;;;;;;15.25;80.90;99430.11;108289;1281;21977;-66
2023/04/05 06:09:29;;;;;;;15.90;13.40;;;;;;;15.25;81.31;99431.71;108446;1281;22148;-66
2023/04/05 06:11:55;;;;;;;21.60;14.90;;;;;;;15.25;81.45;99428.89;108433;1281;21982;-67
2023/04/05 06:14:21;;;;;;;17.40;14.60;;;;;;;15.25;81.62;99427.13;108449;1281;21984;-67
2023/04/05 06:16:52;;;;;;;20.90;14.50;;;;;;;15.26;81.87;99430.08;108430;1281;21986;-67
2023/04/05 06:19:17;;;;;;;17.20;13.70;;;;;;;15.28;81.97;99430.67;108500;1281;21993;-66
2023/04/05 06:21:43;;;;;;;20.30;13.50;;;;;;;15.34;81.55;99431.33;108426;1281;21984;-67
2023/04/05 06:24:10;;;;;;;18.70;15.40;;;;;;;15.34;81.82;99434.46;108506;1281;22000;-66
2023/04/05 06:26:35;;;;;;;19.20;16.30;;;;;;;15.33;82.16;99434.16;108425;1281;23812;-68
2023/04/05 06:29:01;;;;;;;18.90;16.20;;;;;;;15.29;82.77;99431.73;108417;1281;22184;-66
2023/04/05 06:31:32;;;;;;;21.00;16.30;;;;;;;15.26;83.61;99429.19;108346;1281;21971;-67
2023/04/05 06:33:58;;;;;;;19.10;15.30;;;;;;;15.31;83.34;99431.83;108408;1281;21994;-68
2023/04/05 06:36:23;;;;;;;18.10;15.80;;;;;;;15.36;83.28;99432.96;108456;1277;22001;-67
2023/04/05 06:38:50;;;;;;;19.30;16.00;;;;;;;15.44;83.56;99436.14;108481;1281;23619;-67
2023/04/05 06:41:16;;;;;;;22.20;17.20;;;;;;;15.50;82.96;99433.92;108564;1281;22023;-68
2023/04/05 06:43:42;;;;;;;23.10;19.20;;;;;;;15.51;83.31;99432.81;108389;1281;21987;-67
2023/04/05 06:46:10;;;;;;;18.00;15.90;;;;;;;15.49;83.81;99428.64;108402;1281;21980;-67
2023/04/05 06:48:39;;;;;;;25.30;16.60;;;;;;;15.53;83.74;99423.54;108402;1277;24389;-68
2023/04/05 06:51:04;;;;;;;20.40;15.40;;;;;;;15.56;83.72;99421.05;108519;1281;22019;-68
2023/04/05 06:53:30;;;;;;;17.90;15.80;;;;;;;15.63;83.35;99419.51;108479;1281;23736;-67
2023/04/05 06:55:57;;;;;;;18.80;16.20;;;;;;;15.67;83.42;99415.61;108494;1281;21983;-66
2023/04/05 06:58:23;;;;;;;27.70;18.40;;;;;;;15.72;83.53;99413.05;108434;1281;25039;-67
2023/04/05 07:00:50;;;;;;;20.80;15.80;;;;;;;15.78;83.94;99409.60;108467;1281;23737;-66
2023/04/05 07:03:25;;;;;;;21.60;18.50;;;;;;;15.90;83.86;99408.65;108232;1281;21988;-66
2023/04/05 07:05:52;;;;;;;23.70;19.00;;;;;;;15.96;83.09;99404.66;108387;1277;21980;-65
2023/04/05 07:08:19;;;;;;;29.20;22.40;;;;;;;16.02;82.80;99401.37;108485;1278;21986;-67
2023/04/05 07:10:46;;;;;;;21.40;19.00;;;;;;;16.09;82.60;99399.95;108433;1277;22308;-67
2023/04/05 07:13:11;;;;;;;24.40;19.00;;;;;;;16.17;82.38;99400.79;108416;1281;22159;-67
2023/04/05 07:15:41;;;;;;;19.80;17.50;;;;;;;16.22;81.88;99399.63;108334;1280;22745;-66
2023/04/05 07:18:07;;;;;;;23.80;19.00;;;;;;;16.19;81.34;99396.61;108411;1281;22038;-68
2023/04/05 07:20:33;;;;;;;22.90;19.20;;;;;;;16.23;81.29;99394.98;108525;1281;21991;-67
2023/04/05 07:23:06;;;;;;;21.70;17.80;;;;;;;16.26;80.64;99390.21;108566;1280;22193;-68
2023/04/05 07:25:35;;;;;;;20.90;16.90;;;;;;;16.25;80.59;99386.75;108403;1281;22021;-66
2023/04/05 07:28:01;;;;;;;19.60;17.00;;;;;;;16.27;80.35;99384.14;108482;1281;23050;-67
2023/04/05 07:30:27;;;;;;;21.20;16.00;;;;;;;16.34;80.45;99384.48;108470;1281;23641;-66
2023/04/05 07:32:53;;;;;;;21.70;16.70;;;;;;;16.34;80.41;99384.66;108493;1281;21984;-65
2023/04/05 07:35:19;;;;;;;17.60;15.60;;;;;;;16.40;80.21;99388.27;108440;1281;21986;-64
2023/04/05 07:37:47;;;;;;;17.50;15.60;;;;;;;16.40;79.63;99393.02;108446;1281;21980;-65
2023/04/05 07:40:13;;;;;;;18.00;14.90;;;;;;;16.35;79.30;99390.46;108418;1281;23831;-66
2023/04/05 07:42:39;;;;;;;20.00;15.70;;;;;;;16.27;78.83;99393.02;108252;1281;22113;-66
2023/04/05 07:45:08;;;;;;;18.60;15.30;;;;;;;16.20;78.48;99394.79;108509;1281;21992;-68
2023/04/05 07:47:34;;;;;;;16.90;14.50;;;;;;;16.20;78.26;99395.87;108420;1281;22023;-66
2023/04/05 07:50:05;;;;;;;17.90;14.80;;;;;;;16.16;78.13;99396.19;108487;1281;22769;-66
2023/04/05 07:52:33;;;;;;;16.80;14.00;;;;;;;16.15;78.16;99399.65;108521;1281;21991;-66
2023/04/05 07:54:58;;;;;;;17.30;14.10;;;;;;;16.13;78.21;99403.28;108484;1281;21984;-68
2023/04/05 07:57:24;;;;;;;18.00;14.00;;;;;;;16.13;77.92;99407.33;108434;1281;21976;-66
2023/04/05 07:59:51;;;;;;;16.00;14.30;;;;;;;16.02;77.73;99405.61;108461;1281;21971;-68
2023/04/05 08:02:24;;;;;;;17.60;13.80;;;;;;;15.98;77.63;99397.64;108473;1281;21980;-69
2023/04/05 08:04:52;;;;;;;19.40;16.10;;;;;;;15.97;77.71;99396.14;108322;1281;22073;-68
2023/04/05 08:07:18;;;;;;;17.00;14.40;;;;;;;15.78;78.40;99392.95;108504;1281;21984;-68
2023/04/05 08:09:44;;;;;;;16.70;14.40;;;;;;;15.62;78.82;99393.55;108472;1281;21954;-65
2023/04/05 08:12:11;;;;;;;15.10;13.10;;;;;;;15.64;78.69;99397.17;108546;1280;21984;-66
2023/04/05 08:14:37;;;;;;;16.60;13.00;;;;;;;15.71;78.17;99397.36;108463;1281;21989;-65
2023/04/05 08:17:05;;;;;;;16.90;12.80;;;;;;;15.72;78.43;99395.69;108478;1281;22021;-66
2023/04/05 08:19:32;;;;;;;15.00;12.40;;;;;;;15.63;79.08;99390.70;108503;1281;21980;-65
2023/04/05 08:21:57;;;;;;;13.80;12.20;;;;;;;15.63;78.62;99391.73;108456;1281;22039;-67
2023/04/05 08:24:23;;;;;;;15.90;12.50;;;;;;;15.56;78.82;99395.60;108462;1281;22021;-65
2023/04/05 08:26:49;;;;;;;15.20;12.40;;;;;;;15.51;78.81;99392.88;108461;1281;21982;-67
2023/04/05 08:29:15;;;;;;;18.10;13.80;;;;;;;15.43;79.03;99392.70;108574;1281;21990;-68
2023/04/05 08:31:41;;;;;;;16.50;12.90;;;;;;;15.37;79.14;99386.27;108461;1281;21990;-68
2023/04/05 08:34:08;;;;;;;13.70;11.50;;;;;;;15.38;79.31;99383.20;108515;1281;21982;-67
2023/04/05 08:36:33;;;;;;;19.30;12.70;;;;;;;15.39;79.27;99383.70;108450;1281;21961;-67
2023/04/05 08:38:59;;;;;;;12.40;11.00;;;;;;;15.43;79.00;99382.62;108443;1281;21984;-67
2023/04/05 08:41:26;;;;;;;13.60;12.00;;;;;;;15.43;79.16;99379.61;108495;1281;22021;-68
2023/04/05 08:44:10;;;;;;;16.40;12.60;;;;;;;15.32;79.61;99378.94;108275;1281;22449;-66
2023/04/05 08:46:35;;;;;;;15.80;11.90;;;;;;;15.32;79.17;99377.52;108453;1281;22013;-67
2023/04/05 08:49:10;;;;;;;15.70;12.40;;;;;;;15.34;79.35;99383.91;108230;1281;22021;-68
2023/04/05 08:51:38;;;;;;;15.60;12.50;;;;;;;15.30;79.64;99389.27;108477;1281;22002;-67
2023/04/05 08:54:04;;;;;;;17.20;12.00;;;;;;;15.26;79.78;99389.09;108557;1281;23251;-66
2023/04/05 08:56:34;;;;;;;14.00;10.90;;;;;;;15.21;79.82;99390.77;108466;1277;22075;-67
2023/04/05 08:59:09;;;;;;;14.70;11.60;;;;;;;15.20;79.41;99387.42;107801;1281;1002621;-66
2023/04/05 09:01:44;;;;;;;14.60;10.90;;;;;;;15.18;79.30;99388.40;108507;1281;21980;-67
2023/04/05 09:04:13;;;;;;;15.20;10.90;;;;;;;15.17;79.27;99393.41;108227;1281;21984;-66
2023/04/05 09:06:40;;;;;;;12.80;9.70;;;;;;;15.18;79.14;99396.35;108516;1281;21996;-68
2023/04/05 09:09:06;;;;;;;12.60;10.90;;;;;;;15.18;79.14;99397.45;108292;1281;21986;-68
2023/04/05 09:11:34;;;;;;;12.90;10.40;;;;;;;15.06;80.03;99399.58;108578;1281;21994;-64
2023/04/05 09:14:10;;;;;;;12.70;10.60;;;;;;;15.07;80.06;99401.97;108564;1281;24336;-67
2023/04/05 09:16:39;;;;;;;15.60;11.00;;;;;;;15.10;79.43;99401.13;108463;1281;22004;-67
2023/04/05 09:19:30;;;;;;;12.40;10.20;;;;;;;15.13;79.11;99406.32;108450;1281;23802;-67
2023/04/05 09:22:22;;;;;;;17.30;11.10;;;;;;;15.14;79.30;99403.44;108468;1281;22002;-67
2023/04/05 09:25:41;;;;;;;14.40;10.40;;;;;;;15.01;80.23;99403.66;108440;1281;23068;-67
2023/04/05 09:28:41;;;;;;;13.60;10.80;;;;;;;15.09;80.15;99399.96;108460;1281;21991;-67
2023/04/05 09:31:34;;;;;;;14.00;11.10;;;;;;;15.17;80.04;99394.09;108452;1281;22017;-67
2023/04/05 09:34:25;;;;;;;16.20;11.30;;;;;;;15.20;80.11;99388.29;108520;1281;21982;-67
2023/04/05 09:37:18;;;;;;;16.80;11.10;;;;;;;15.22;80.07;99387.52;108462;1282;21980;-68
2023/04/05 09:40:10;;;;;;;17.30;11.70;;;;;;;15.18;79.91;99377.98;108563;1281;21983;-65
2023/04/05 09:43:01;;;;;;;13.90;11.50;;;;;;;15.14;79.79;99378.35;108443;1282;22001;-66
2023/04/05 09:45:51;;;;;;;;;;;;;;;15.12;79.19;99382.30;108311;1281;21962;-66
2023/04/05 09:48:49;;;;;;;15.50;10.70;;;;;;;15.10;78.87;99379.06;108176;1281;21990;-66
2023/04/05 09:51:15;;;;;;;14.30;10.90;;;;;;;15.01;79.24;99377.90;108469;1281;23609;-67
2023/04/05 09:53:59;;;;;;;15.40;11.80;;;;;;;15.02;79.16;99381.92;108180;1281;22029;-66
2023/04/05 09:56:25;;;;;;;14.40;11.60;;;;;;;15.00;79.31;99377.95;108300;1281;22619;-68
2023/04/05 09:58:51;;;;;;;15.60;11.60;;;;;;;14.92;79.61;99375.10;108531;1281;21984;-67
2023/04/05 10:01:21;;;;;;;14.10;10.10;;;;;;;14.81;80.28;99376.48;108360;1281;21979;-66
2023/04/05 10:03:49;;;;;;;13.60;10.10;;;;;;;14.82;79.91;99377.89;108431;1281;21976;-66
2023/04/05 10:06:15;;;;;;;15.00;10.90;;;;;;;14.79;79.87;99380.49;108452;1281;21975;-69
2023/04/05 10:08:48;;;;;;;13.20;10.80;;;;;;;14.79;79.71;99386.14;108348;1281;22455;-66
2023/04/05 10:11:16;;;;;;;15.40;10.20;;;;;;;14.70;80.14;99385.81;108339;1281;21978;-65
2023/04/05 10:13:43;;;;;;;14.00;10.60;;;;;;;14.74;80.01;99380.88;108466;1274;202797;-69
2023/04/05 10:16:12;;;;;;;15.10;10.70;;;;;;;14.68;80.25;99378.84;108342;1281;21988;-66
2023/04/05 10:18:45;;;;;;;13.60;10.50;;;;;;;14.63;80.39;99383.30;108476;1281;21991;-68
2023/04/05 10:21:11;;;;;;;15.20;11.10;;;;;;;14.61;80.13;99387.06;108587;1281;21981;-69
2023/04/05 10:23:37;;;;;;;13.50;9.60;;;;;;;14.62;79.60;99382.08;108299;1281;23603;-67
2023/04/05 10:26:18;;;;;;;13.70;10.40;;;;;;;14.65;79.12;99389.19;108389;1281;22908;-68
2023/04/05 10:28:46;;;;;;;13.40;9.90;;;;;;;14.69;78.78;99386.05;108551;1281;21992;-67
2023/04/05 10:31:30;;;;;;;13.80;10.40;;;;;;;14.60;79.11;99388.52;108268;1281;22019;-65
2023/04/05 10:34:02;;;;;;;12.50;9.10;;;;;;;14.57;79.12;99391.84;108469;1281;21984;-67
2023/04/05 10:36:54;;;;;;;16.70;11.00;;;;;;;14.59;79.02;99392.09;108459;1281;21988;-67
2023/04/05 10:39:34;;;;;;;12.30;9.90;;;;;;;14.50;79.65;99389.30;108363;1281;21991;-68
2023/04/05 10:42:06;;;;;;;13.20;8.90;;;;;;;14.60;78.61;99390.13;108315;1281;22037;-68
2023/04/05 10:44:32;;;;;;;12.50;8.70;;;;;;;14.63;78.06;99398.64;108453;1277;21978;-68
2023/04/05 10:46:57;;;;;;;9.20;7.00;;;;;;;14.57;77.62;99395.92;108315;1281;22036;-65
2023/04/05 10:49:39;;;;;;;10.00;7.50;;;;;;;14.27;79.10;99395.97;108288;1281;21983;-64
2023/04/05 10:52:04;;;;;;;10.60;7.80;;;;;;;14.32;78.64;99393.66;108491;1281;22172;-65
2023/04/05 10:54:35;;;;;;;11.00;7.60;;;;;;;14.35;78.22;99395.99;108573;1281;21986;-67
2023/04/05 10:57:06;;;;;;;10.20;7.60;;;;;;;14.33;77.69;99399.10;108522;1281;22029;-66
2023/04/05 10:59:33;;;;;;;9.00;7.40;;;;;;;14.32;77.36;99400.38;108249;1281;21981;-65
2023/04/05 11:01:58;;;;;;;10.40;6.80;;;;;;;14.28;76.97;99402.82;108515;1281;21991;-67
2023/04/05 11:04:24;;;;;;;9.10;7.20;;;;;;;14.17;77.25;99402.55;108420;1281;22053;-68
2023/04/05 11:07:09;;;;;;;9.70;7.10;;;;;;;14.09;77.28;99399.58;108498;1281;21985;-67
2023/04/05 11:09:35;;;;;;;13.30;7.30;;;;;;;13.95;78.34;99401.02;108510;1281;21989;-67
2023/04/05 11:12:01;;;;;;;11.50;7.30;;;;;;;13.92;78.13;99403.77;108495;1281;22039;-66
2023/04/05 11:14:36;;;;;;;12.20;7.20;;;;;;;13.94;77.71;99398.96;108450;1277;22201;-68
2023/04/05 11:17:02;;;;;;;14.60;7.70;;;;;;;13.90;77.78;99391.02;108581;1281;22443;-67
2023/04/05 11:19:46;;;;;;;12.10;7.90;;;;;;;13.85;77.72;99394.39;108551;1281;21986;-66